Time;durP1;ratioP1;P1;durP2;ratioP2;P2;SDS_P1;SDS_P2;PMS_P1;PMS_P2;Temp;Humidity;BMP_temperature;BMP_pressure;BME280_temperature;BME280_humidity;BME280_pressure;Samples;Min_cycle;Max_cycle;Signal;HPM_P1;HPM_P2
2023/06/26 00:00:11;;;;;;;;;;;;;;;;;;4410021;32;65166;-58
2023/06/26 00:02:57;;;;;;;3.20;2.37;;;;;;;;;;4398315;32;68321;-59
2023/06/26 00:05:44;;;;;;;4.15;2.55;;;;;;;;;;4399232;32;60132;-57
2023/06/26 00:08:31;;;;;;;4.30;2.47;;;;;;;;;;4412252;32;71702;-58
2023/06/26 00:11:17;;;;;;;;;;;;;;;;;;4410000;32;66501;-59
2023/06/26 00:14:04;;;;;;;4.35;2.60;;;;;;;;;;4409231;32;67903;-57
2023/06/26 00:16:51;;;;;;;5.35;2.90;;;;;;;;;;4388562;32;60081;-58
2023/06/26 00:19:37;;;;;;;4.90;2.70;;;;;;;;;;4387174;32;70300;-59
2023/06/26 00:22:24;;;;;;;4.60;2.58;;;;;;;;;;4410537;32;68327;-58
2023/06/26 00:25:10;;;;;;;4.47;2.87;;;;;;;;;;4387852;32;67661;-58
2023/06/26 00:27:57;;;;;;;4.28;2.75;;;;;;;;;;4397964;32;72219;-58
2023/06/26 00:30:44;;;;;;;4.47;2.47;;;;;;;;;;4398705;32;65863;-57
2023/06/26 00:33:30;;;;;;;4.45;2.85;;;;;;;;;;4409199;32;69311;-58
2023/06/26 00:36:17;;;;;;;5.20;3.00;;;;;;;;;;4409263;32;68163;-59
2023/06/26 00:39:03;;;;;;;3.62;2.45;;;;;;;;;;4374425;32;72560;-58
2023/06/26 00:41:50;;;;;;;6.70;2.92;;;;;;;;;;4383194;32;65102;-59
2023/06/26 00:44:38;;;;;;;3.70;2.35;;;;;;;;;;4393804;32;66699;-59
2023/06/26 00:47:25;;;;;;;5.40;2.90;;;;;;;;;;4372757;32;60413;-58
2023/06/26 00:50:13;;;;;;;3.90;2.47;;;;;;;;;;4371834;32;71230;-58
2023/06/26 00:53:01;;;;;;;4.37;2.65;;;;;;;;;;4380241;32;68967;-59
2023/06/26 00:55:48;;;;;;;7.70;2.83;;;;;;;;;;4373301;32;66940;-58
2023/06/26 00:58:34;;;;;;;5.05;2.95;;;;;;;;;;4373100;32;60272;-58
2023/06/26 01:01:21;;;;;;;4.70;2.67;;;;;;;;;;4361878;32;70850;-59
2023/06/26 01:04:08;;;;;;;4.75;3.00;;;;;;;;;;4383435;32;69231;-58
2023/06/26 01:06:57;;;;;;;5.28;2.72;;;;;;;;;;4383435;32;66771;-59
2023/06/26 01:09:47;;;;;;;5.40;2.65;;;;;;;;;;4362240;32;70446;-57
2023/06/26 01:12:35;;;;;;;5.30;3.00;;;;;;;;;;4351052;32;65532;-59
2023/06/26 01:15:21;;;;;;;4.80;2.83;;;;;;;;;;4383279;32;66324;-58
2023/06/26 01:18:11;;;;;;;4.87;2.70;;;;;;;;;;4373100;32;59262;-59
2023/06/26 01:21:01;;;;;;;4.45;2.67;;;;;;;;;;4372369;32;70451;-59
2023/06/26 01:24:21;;;;;;;4.32;2.42;;;;;;;;;;4362094;32;65838;-59
2023/06/26 01:27:11;;;;;;;3.70;2.30;;;;;;;;;;4359985;32;67665;-59
2023/06/26 01:29:58;;;;;;;6.35;2.90;;;;;;;;;;4383389;32;60483;-58
2023/06/26 01:32:45;;;;;;;5.40;2.78;;;;;;;;;;4361588;32;68923;-59
2023/06/26 01:35:32;;;;;;;4.15;2.50;;;;;;;;;;4371965;32;69823;-58
2023/06/26 01:38:23;;;;;;;3.47;2.40;;;;;;;;;;4372353;32;66628;-58
2023/06/26 01:41:10;;;;;;;3.67;2.47;;;;;;;;;;4361397;32;71075;-59
2023/06/26 01:44:10;;;;;;;5.75;2.78;;;;;;;;;;4361256;32;66694;-59
2023/06/26 01:47:05;;;;;;;4.55;2.80;;;;;;;;;;4362777;32;67741;-59
2023/06/26 01:50:04;;;;;;;5.50;2.72;;;;;;;;;;4371639;32;68390;-58
2023/06/26 01:52:55;;;;;;;6.32;2.95;;;;;;;;;;4384020;32;70759;-58
2023/06/26 01:56:15;;;;;;;4.90;2.53;;;;;;;;;;4372715;32;65632;-57
2023/06/26 01:59:05;;;;;;;4.47;3.00;;;;;;;;;;4380258;32;66322;-58
2023/06/26 02:01:53;;;;;;;5.97;3.00;;;;;;;;;;4372390;32;59158;-59
2023/06/26 02:04:41;;;;;;;3.85;2.60;;;;;;;;;;4371366;32;69468;-58
2023/06/26 02:07:27;;;;;;;3.97;2.50;;;;;;;;;;4361261;32;70042;-59
2023/06/26 02:10:15;;;;;;;4.60;2.55;;;;;;;;;;4361109;32;68284;-59
2023/06/26 02:13:01;;;;;;;;;;;;;;;;;;4372750;32;59187;-58
2023/06/26 02:15:48;;;;;;;4.78;2.90;;;;;;;;;;4371603;32;69485;-58
2023/06/26 02:18:35;;;;;;;5.03;2.95;;;;;;;;;;4361448;32;69255;-60
2023/06/26 02:21:22;;;;;;;5.20;2.87;;;;;;;;;;4361568;32;67723;-59
2023/06/26 02:24:09;;;;;;;4.65;2.87;;;;;;;;;;4371756;32;70795;-59
2023/06/26 02:26:57;;;;;;;7.95;2.97;;;;;;;;;;4361241;32;65756;-60
2023/06/26 02:29:44;;;;;;;4.43;2.90;;;;;;;;;;4361886;32;66702;-58
2023/06/26 02:32:31;;;;;;;8.60;4.90;;;;;;;;;;4382806;32;60123;-59
2023/06/26 02:35:18;;;;;;;4.25;2.53;;;;;;;;;;4371078;32;71639;-58
2023/06/26 02:38:05;;;;;;;5.25;3.15;;;;;;;;;;4371688;32;65040;-58
2023/06/26 02:40:52;;;;;;;4.53;2.58;;;;;;;;;;4373966;32;66916;-61
2023/06/26 02:43:39;;;;;;;6.30;3.20;;;;;;;;;;4382607;32;60582;-59
2023/06/26 02:46:26;;;;;;;5.75;3.03;;;;;;;;;;4382123;32;70533;-59
2023/06/26 02:49:13;;;;;;;6.35;2.95;;;;;;;;;;4371722;32;68335;-58
2023/06/26 02:52:00;;;;;;;4.95;2.80;;;;;;;;;;4371461;32;67636;-60
2023/06/26 02:54:47;;;;;;;4.97;2.78;;;;;;;;;;4371501;32;71756;-58
2023/06/26 02:57:34;;;;;;;4.45;3.03;;;;;;;;;;4382248;32;65722;-59
2023/06/26 03:00:21;;;;;;;4.45;2.90;;;;;;;;;;4382068;32;66859;-58
2023/06/26 03:03:09;;;;;;;5.25;3.03;;;;;;;;;;4382143;32;67788;-59
2023/06/26 03:05:56;;;;;;;5.97;3.15;;;;;;;;;;4371244;32;72043;-58
2023/06/26 03:08:44;;;;;;;6.10;3.45;;;;;;;;;;4371970;32;65016;-58
2023/06/26 03:11:31;;;;;;;6.47;3.03;;;;;;;;;;4371468;32;67303;-59
2023/06/26 03:14:18;;;;;;;4.40;2.97;;;;;;;;;;4360124;32;59825;-59
2023/06/26 03:17:07;;;;;;;4.00;2.60;;;;;;;;;;4370909;32;70227;-59
2023/06/26 03:19:54;;;;;;;3.85;2.95;;;;;;;;;;4381758;32;68415;-58
2023/06/26 03:22:41;;;;;;;3.28;2.47;;;;;;;;;;4371276;32;67607;-59
2023/06/26 03:25:29;;;;;;;4.15;3.15;;;;;;;;;;4361006;32;71869;-58
2023/06/26 03:28:16;;;;;;;4.40;2.75;;;;;;;;;;4370736;32;71077;-58
2023/06/26 03:31:03;;;;;;;3.53;2.37;;;;;;;;;;4371329;32;69971;-58
2023/06/26 03:33:50;;;;;;;6.22;2.97;;;;;;;;;;4360205;32;68054;-58
2023/06/26 03:36:38;;;;;;;6.35;2.90;;;;;;;;;;4360851;32;71889;-59
2023/06/26 03:39:25;;;;;;;6.78;3.30;;;;;;;;;;4367071;32;65944;-59
2023/06/26 03:42:11;;;;;;;5.82;2.72;;;;;;;;;;4381156;32;68007;-58
2023/06/26 03:44:58;;;;;;;6.55;2.55;;;;;;;;;;4371408;32;59186;-59
2023/06/26 03:47:49;;;;;;;5.50;2.97;;;;;;;;;;4381448;32;69459;-58
2023/06/26 03:50:35;;;;;;;5.28;2.60;;;;;;;;;;4369984;32;69504;-58
2023/06/26 03:53:23;;;;;;;4.00;2.90;;;;;;;;;;4370915;32;66985;-58
2023/06/26 03:56:11;;;;;;;6.18;3.08;;;;;;;;;;4370430;32;61042;-58
2023/06/26 03:58:58;;;;;;;5.75;2.67;;;;;;;;;;4381248;32;69588;-58
2023/06/26 04:01:46;;;;;;;5.47;3.53;;;;;;;;;;4359704;32;70377;-58
2023/06/26 04:04:34;;;;;;;5.30;2.95;;;;;;;;;;4381485;32;67738;-58
2023/06/26 04:07:21;;;;;;;;;;;;;;;;;;4360293;32;72371;-58
2023/06/26 04:10:08;;;;;;;5.65;2.95;;;;;;;;;;4381151;32;66975;-58
2023/06/26 04:12:54;;;;;;;6.62;2.72;;;;;;;;;;4370638;32;67478;-58
2023/06/26 04:15:41;;;;;;;;;;;;;;;;;;4382173;32;60124;-58
2023/06/26 04:18:27;;;;;;;4.60;2.62;;;;;;;;;;4369893;32;72516;-58
2023/06/26 04:21:14;;;;;;;4.95;3.22;;;;;;;;;;4359912;32;67491;-58
2023/06/26 04:24:01;;;;;;;4.93;2.70;;;;;;;;;;4360176;32;67128;-59
2023/06/26 04:26:48;;;;;;;4.62;3.15;;;;;;;;;;4370886;32;59223;-58
2023/06/26 04:29:34;;;;;;;5.50;2.65;;;;;;;;;;4361893;32;70535;-57
2023/06/26 04:32:21;;;;;;;;;;;;;;;;;;4372957;32;70092;-58
2023/06/26 04:35:07;;;;;;;4.57;2.72;;;;;;;;;;4383611;32;68308;-58
2023/06/26 04:37:54;;;;;;;6.32;3.03;;;;;;;;;;4362836;32;71696;-58
2023/06/26 04:40:41;;;;;;;;;;;;;;;;;;4364121;32;70654;-59
2023/06/26 04:43:28;;;;;;;4.80;2.95;;;;;;;;;;4388202;32;69603;-58
2023/06/26 04:46:14;;;;;;;5.50;3.17;;;;;;;;;;4373243;32;67601;-59
2023/06/26 04:49:03;;;;;;;6.12;3.28;;;;;;;;;;4372473;32;72526;-58
2023/06/26 04:51:50;;;;;;;6.05;3.40;;;;;;;;;;4383646;32;65068;-59
2023/06/26 04:54:38;;;;;;;4.70;3.40;;;;;;;;;;4361692;32;68464;-58
2023/06/26 04:57:24;;;;;;;;;;;;;;;;;;4362386;32;60776;-58
2023/06/26 05:00:12;;;;;;;4.78;2.97;;;;;;;;;;4383500;32;70108;-58
2023/06/26 05:03:01;;;;;;;6.53;3.70;;;;;;;;;;4372696;32;69086;-58
2023/06/26 05:05:48;;;;;;;4.75;2.92;;;;;;;;;;4362810;32;68038;-58
2023/06/26 05:08:35;;;;;;;6.93;3.58;;;;;;;;;;4361953;32;60607;-58
2023/06/26 05:11:22;;;;;;;3.95;2.78;;;;;;;;;;4371941;32;71494;-59
2023/06/26 05:14:09;;;;;;;5.97;3.28;;;;;;;;;;4361442;32;70145;-59
2023/06/26 05:16:56;;;;;;;6.18;3.08;;;;;;;;;;4383549;32;67529;-59
2023/06/26 05:19:42;;;;;;;;;;;;;;;;;;4373352;32;71843;-58
2023/06/26 05:22:29;;;;;;;5.45;3.70;;;;;;;;;;4384752;32;66115;-58
2023/06/26 05:25:17;;;;;;;4.72;3.20;;;;;;;;;;4373298;32;66852;-58
2023/06/26 05:28:10;;;;;;;5.35;2.90;;;;;;;;;;4372933;32;59120;-58
2023/06/26 05:30:57;;;;;;;5.40;3.10;;;;;;;;;;4373063;32;71736;-63
2023/06/26 05:33:45;;;;;;;4.62;3.00;;;;;;;;;;4362550;32;66809;-57
2023/06/26 05:36:33;;;;;;;5.78;3.67;;;;;;;;;;4372220;32;67560;-57
2023/06/26 05:39:20;;;;;;;4.25;2.83;;;;;;;;;;4372668;32;58840;-59
2023/06/26 05:42:07;;;;;;;5.32;3.17;;;;;;;;;;4351099;32;70126;-59
2023/06/26 05:44:54;;;;;;;4.72;3.25;;;;;;;;;;4384642;32;69397;-60
2023/06/26 05:47:40;;;;;;;4.47;2.70;;;;;;;;;;4383778;32;66969;-58
2023/06/26 05:50:28;;;;;;;2.00;0.95;;;;;;;;;;4382602;32;72307;-57
2023/06/26 05:53:15;;;;;;;5.10;3.08;;;;;;;;;;4372527;32;64923;-58
2023/06/26 05:56:02;;;;;;;6.03;3.50;;;;;;;;;;4361852;32;69289;-59
2023/06/26 05:58:51;;;;;;;4.80;2.92;;;;;;;;;;4372448;32;67744;-59
2023/06/26 06:01:38;;;;;;;6.87;3.37;;;;;;;;;;4382453;32;70669;-58
2023/06/26 06:04:25;;;;;;;5.53;3.12;;;;;;;;;;4382762;32;65882;-59
2023/06/26 06:07:12;;;;;;;;;;;;;;;;;;4383147;32;66804;-57
2023/06/26 06:09:58;;;;;;;5.40;3.37;;;;;;;;;;4383362;32;59463;-58
2023/06/26 06:12:45;;;;;;;7.28;3.60;;;;;;;;;;4372229;32;70280;-58
2023/06/26 06:15:32;;;;;;;5.32;3.03;;;;;;;;;;4361684;32;69283;-58
2023/06/26 06:18:19;;;;;;;8.05;2.80;;;;;;;;;;4372063;32;67580;-58
2023/06/26 06:21:05;;;;;;;1.00;0.90;;;;;;;;;;4382937;32;60010;-60
2023/06/26 06:23:52;;;;;;;5.53;2.92;;;;;;;;;;4382485;32;69585;-58
2023/06/26 06:26:39;;;;;;;5.97;4.00;;;;;;;;;;4371850;32;69944;-58
2023/06/26 06:29:25;;;;;;;6.05;3.28;;;;;;;;;;4372170;32;67519;-58
2023/06/26 06:32:12;;;;;;;;;;;;;;;;;;4373631;32;70705;-58
2023/06/26 06:34:58;;;;;;;3.92;2.70;;;;;;;;;;4372036;32;64894;-57
2023/06/26 06:37:46;;;;;;;6.87;4.62;;;;;;;;;;4372753;32;68165;-57
2023/06/26 06:40:32;;;;;;;;;;;;;;;;;;4362886;32;59115;-58
2023/06/26 06:43:19;;;;;;;7.45;4.93;;;;;;;;;;4381626;32;70155;-58
2023/06/26 06:46:07;;;;;;;5.35;3.90;;;;;;;;;;4392942;32;65060;-58
2023/06/26 06:48:54;;;;;;;4.53;3.47;;;;;;;;;;4386328;32;67150;-58
2023/06/26 06:51:41;;;;;;;6.45;4.10;;;;;;;;;;4373283;32;59180;-59
2023/06/26 06:54:28;;;;;;;;;;;;;;;;;;4372399;32;70736;-58
2023/06/26 06:57:15;;;;;;;7.90;4.55;;;;;;;;;;4361490;32;68664;-59
2023/06/26 07:00:04;;;;;;;6.68;4.15;;;;;;;;;;4370692;32;68278;-58
2023/06/26 07:02:51;;;;;;;7.47;3.95;;;;;;;;;;4359896;32;71924;-58
2023/06/26 07:05:38;;;;;;;6.18;3.90;;;;;;;;;;4381841;32;66639;-58
2023/06/26 07:08:24;;;;;;;7.12;3.78;;;;;;;;;;4360941;32;69642;-58
2023/06/26 07:11:11;;;;;;;;;;;;;;;;;;4374083;32;67663;-59
2023/06/26 07:13:57;;;;;;;6.28;4.30;;;;;;;;;;4371451;32;71981;-59
2023/06/26 07:16:44;;;;;;;5.80;3.87;;;;;;;;;;4360099;32;66572;-58
2023/06/26 07:19:31;;;;;;;;;;;;;;;;;;4360967;32;67014;-59
2023/06/26 07:22:20;;;;;;;9.05;4.28;;;;;;;;;;4382248;32;58922;-59
2023/06/26 07:25:09;;;;;;;8.32;4.43;;;;;;;;;;4360382;32;70973;-58
2023/06/26 07:27:56;;;;;;;8.00;4.50;;;;;;;;;;4360297;32;70110;-58
2023/06/26 07:30:42;;;;;;;;;;;;;;;;;;4370611;32;68790;-58
2023/06/26 07:33:29;;;;;;;7.00;4.00;;;;;;;;;;4383358;32;59124;-57
2023/06/26 07:36:16;;;;;;;;;;;;;;;;;;4360761;32;70441;-58
2023/06/26 07:39:03;;;;;;;7.07;5.03;;;;;;;;;;4381593;32;68742;-58
2023/06/26 07:41:49;;;;;;;;;;;;;;;;;;4370710;32;66618;-58
2023/06/26 07:44:36;;;;;;;6.62;4.22;;;;;;;;;;4349020;32;71971;-57
2023/06/26 07:47:22;;;;;;;;;;;;;;;;;;4360101;32;66183;-57
2023/06/26 07:50:09;;;;;;;5.50;4.28;;;;;;;;;;4381752;32;68371;-58
2023/06/26 07:52:56;;;;;;;6.12;3.87;;;;;;;;;;4359233;32;60275;-59
2023/06/26 07:55:43;;;;;;;5.87;3.75;;;;;;;;;;4370103;32;70339;-59
2023/06/26 07:58:30;;;;;;;6.03;4.35;;;;;;;;;;4370987;32;66047;-58
2023/06/26 08:01:17;;;;;;;5.80;2.90;;;;;;;;;;4381820;32;66601;-58
2023/06/26 08:04:04;;;;;;;5.93;3.80;;;;;;;;;;4350788;32;61066;-58
2023/06/26 08:06:51;;;;;;;;;;;;;;;;;;4373846;32;70479;-59
2023/06/26 08:09:38;;;;;;;5.45;3.60;;;;;;;;;;4352430;32;69866;-58
2023/06/26 08:12:25;;;;;;;;;;;;;;;;;;4373042;32;66781;-58
2023/06/26 08:15:12;;;;;;;5.22;3.67;;;;;;;;;;4373435;32;71922;-59
2023/06/26 08:17:59;;;;;;;5.25;3.42;;;;;;;;;;4362108;32;65718;-59
2023/06/26 08:20:45;;;;;;;;;;;;;;;;;;4384694;32;67276;-59
2023/06/26 08:23:31;;;;;;;5.07;3.42;;;;;;;;;;4384026;32;67692;-59
2023/06/26 08:26:18;;;;;;;;;;;;;;;;;;4373180;32;73166;-59
2023/06/26 08:29:07;;;;;;;6.50;3.80;;;;;;;;;;4384968;32;66184;-58
2023/06/26 08:31:54;;;;;;;6.20;4.03;;;;;;;;;;4372798;32;67082;-58
2023/06/26 08:34:40;;;;;;;;;;;;;;;;;;4373657;32;59242;-59
2023/06/26 08:37:27;;;;;;;6.85;4.50;;;;;;;;;;4373475;32;70267;-59
2023/06/26 08:40:16;;;;;;;;;;;;;;;;;;4363174;32;69498;-59
2023/06/26 08:43:04;;;;;;;5.95;3.95;;;;;;;;;;4384160;32;67978;-58
2023/06/26 08:45:51;;;;;;;4.93;3.50;;;;;;;;;;4384814;32;72030;-59
2023/06/26 08:48:38;;;;;;;4.60;3.10;;;;;;;;;;4373592;32;70589;-59
2023/06/26 08:51:25;;;;;;;6.37;4.40;;;;;;;;;;4373008;32;69335;-59
2023/06/26 08:54:13;;;;;;;5.50;3.85;;;;;;;;;;4374261;32;66740;-59
2023/06/26 08:57:00;;;;;;;5.62;4.25;;;;;;;;;;4376056;32;70913;-59
2023/06/26 08:59:48;;;;;;;5.85;4.22;;;;;;;;;;4361544;32;66020;-59
2023/06/26 09:02:35;;;;;;;5.43;3.85;;;;;;;;;;4372269;32;67537;-58
2023/06/26 09:05:22;;;;;;;7.57;4.10;;;;;;;;;;4372901;32;59150;-60
2023/06/26 09:08:08;;;;;;;;;;;;;;;;;;4373167;32;70616;-59
2023/06/26 09:10:55;;;;;;;6.32;4.15;;;;;;;;;;4372847;32;69366;-59
2023/06/26 09:13:41;;;;;;;;;;;;;;;;;;4384520;32;67935;-58
2023/06/26 09:16:28;;;;;;;5.35;3.80;;;;;;;;;;4383171;32;58767;-59
2023/06/26 09:19:14;;;;;;;;;;;;;;;;;;4351306;32;72344;-57
2023/06/26 09:22:01;;;;;;;5.25;3.70;;;;;;;;;;4383272;32;69202;-59
2023/06/26 09:24:47;;;;;;;;;;;;;;;;;;4373076;32;67533;-58
2023/06/26 09:27:35;;;;;;;4.60;3.37;;;;;;;;;;4372319;32;71621;-59
2023/06/26 09:30:23;;;;;;;7.10;4.30;;;;;;;;;;4362252;32;64968;-59
2023/06/26 09:33:17;;;;;;;6.30;4.50;;;;;;;;;;4372860;32;68280;-59
2023/06/26 09:36:20;;;;;;;5.75;3.45;;;;;;;;;;4384121;32;67073;-59
2023/06/26 09:39:10;;;;;;;6.07;3.90;;;;;;;;;;4372240;32;71713;-59
2023/06/26 09:41:58;;;;;;;6.93;4.10;;;;;;;;;;4372164;32;64940;-59
2023/06/26 09:44:46;;;;;;;5.97;4.45;;;;;;;;;;4372136;32;67886;-60
2023/06/26 09:47:35;;;;;;;4.43;2.75;;;;;;;;;;4383135;32;60136;-58
2023/06/26 09:50:23;;;;;;;6.18;3.35;;;;;;;;;;4361721;32;71004;-59
2023/06/26 09:53:10;;;;;;;5.95;3.97;;;;;;;;;;4371838;32;68211;-58
2023/06/26 09:55:57;;;;;;;6.30;4.00;;;;;;;;;;4382797;32;67117;-59
2023/06/26 09:58:44;;;;;;;;;;;;;;;;;;4372765;32;72015;-58
2023/06/26 10:01:32;;;;;;;6.15;4.37;;;;;;;;;;4361903;32;69751;-59
2023/06/26 10:04:21;;;;;;;6.57;4.43;;;;;;;;;;4361339;32;69412;-59
2023/06/26 10:07:12;;;;;;;5.60;3.60;;;;;;;;;;4372281;32;67711;-59
2023/06/26 10:10:02;;;;;;;5.53;4.40;;;;;;;;;;4361489;32;71673;-59
2023/06/26 10:13:00;;;;;;;5.43;4.10;;;;;;;;;;4372501;32;66263;-59
2023/06/26 10:15:47;;;;;;;5.93;5.20;;;;;;;;;;4372039;32;67967;-59
2023/06/26 10:18:34;;;;;;;5.95;3.97;;;;;;;;;;4372054;32;60380;-58
2023/06/26 10:21:22;;;;;;;6.37;4.40;;;;;;;;;;4371002;32;70589;-60
2023/06/26 10:24:10;;;;;;;7.65;5.25;;;;;;;;;;4371586;32;69685;-58
2023/06/26 10:27:13;;;;;;;7.55;5.10;;;;;;;;;;4381597;32;67490;-59
2023/06/26 10:30:04;;;;;;;5.07;3.80;;;;;;;;;;4372165;32;59599;-58
2023/06/26 10:32:52;;;;;;;5.40;4.00;;;;;;;;;;4361242;32;69190;-58
2023/06/26 10:35:44;;;;;;;6.60;4.43;;;;;;;;;;4371898;32;69724;-58
2023/06/26 10:38:51;;;;;;;5.62;3.92;;;;;;;;;;4382589;32;67323;-59
2023/06/26 10:41:39;;;;;;;5.25;3.85;;;;;;;;;;4361389;32;70189;-58
2023/06/26 10:44:26;;;;;;;6.90;4.15;;;;;;;;;;4376718;32;65779;-58
2023/06/26 10:47:35;;;;;;;5.10;3.62;;;;;;;;;;4361716;32;67237;-59
2023/06/26 10:50:37;;;;;;;6.78;4.32;;;;;;;;;;4383115;32;60334;-60
2023/06/26 10:53:33;;;;;;;5.97;3.87;;;;;;;;;;4372175;32;71658;-60
2023/06/26 10:56:20;;;;;;;5.35;3.80;;;;;;;;;;4371349;32;65802;-60
2023/06/26 10:59:14;;;;;;;;;;;;;;;;;;4371209;32;68346;-59
2023/06/26 11:02:03;;;;;;;6.00;3.75;;;;;;;;;;4360887;32;58707;-59
2023/06/26 11:04:53;;;;;;;5.55;4.32;;;;;;;;;;4371720;32;69705;-60
2023/06/26 11:08:03;;;;;;;6.00;3.87;;;;;;;;;;4360907;32;68401;-61
2023/06/26 11:10:52;;;;;;;6.30;4.60;;;;;;;;;;4371697;32;68253;-58
2023/06/26 11:13:40;;;;;;;6.10;4.30;;;;;;;;;;4381950;32;71716;-58
2023/06/26 11:16:26;;;;;;;4.85;3.90;;;;;;;;;;4371102;32;64899;-57
2023/06/26 11:19:14;;;;;;;5.90;3.97;;;;;;;;;;4381168;32;69328;-58
2023/06/26 11:22:03;;;;;;;6.07;4.62;;;;;;;;;;4359942;32;66583;-58
2023/06/26 11:24:54;;;;;;;6.68;3.70;;;;;;;;;;4360915;32;71146;-58
2023/06/26 11:27:41;;;;;;;5.78;4.55;;;;;;;;;;4382312;32;65674;-58
2023/06/26 11:30:28;;;;;;;5.55;4.62;;;;;;;;;;4382116;32;67874;-58
2023/06/26 11:33:14;;;;;;;5.45;3.78;;;;;;;;;;4360368;32;60763;-57
2023/06/26 11:36:11;;;;;;;6.22;4.00;;;;;;;;;;4382014;32;69413;-58
2023/06/26 11:38:59;;;;;;;7.62;4.30;;;;;;;;;;4370685;32;68622;-58
2023/06/26 11:41:46;;;;;;;5.78;3.92;;;;;;;;;;4381308;32;67664;-58
2023/06/26 11:44:33;;;;;;;5.35;4.07;;;;;;;;;;4361130;32;59918;-57
2023/06/26 11:47:20;;;;;;;6.05;4.50;;;;;;;;;;4361058;32;69770;-58
2023/06/26 11:50:14;;;;;;;5.37;3.60;;;;;;;;;;4371465;32;68362;-58
2023/06/26 11:53:02;;;;;;;7.90;4.75;;;;;;;;;;4371233;32;66812;-57
2023/06/26 11:55:48;;;;;;;4.97;3.55;;;;;;;;;;4381494;32;71566;-58
2023/06/26 11:58:36;;;;;;;7.30;4.20;;;;;;;;;;4381886;32;64948;-58
2023/06/26 12:01:23;;;;;;;4.15;2.42;;;;;;;;;;4349497;32;69032;-58
2023/06/26 12:04:11;;;;;;;6.30;4.07;;;;;;;;;;4370638;32;60976;-59
2023/06/26 12:06:58;;;;;;;4.85;3.40;;;;;;;;;;4371010;32;71629;-59
2023/06/26 12:09:48;;;;;;;5.22;3.62;;;;;;;;;;4360536;32;66206;-58
2023/06/26 12:12:35;;;;;;;5.93;3.58;;;;;;;;;;4381604;32;67783;-59
2023/06/26 12:15:22;;;;;;;5.00;3.65;;;;;;;;;;4381576;32;60008;-57
2023/06/26 12:18:09;;;;;;;5.00;3.53;;;;;;;;;;4359614;32;73709;-59
2023/06/26 12:20:56;;;;;;;5.32;3.20;;;;;;;;;;4370441;32;69620;-59
2023/06/26 12:23:43;;;;;;;;;;;;;;;;;;4370701;32;66849;-60
2023/06/26 12:26:30;;;;;;;6.80;4.25;;;;;;;;;;4375762;32;72670;-58
2023/06/26 12:29:17;;;;;;;;;;;;;;;;;;4361754;32;64903;-59
2023/06/26 12:32:07;;;;;;;9.82;3.80;;;;;;;;;;4370870;32;68742;-60
2023/06/26 12:34:54;;;;;;;5.70;3.47;;;;;;;;;;4369722;32;65789;-59
2023/06/26 12:37:44;;;;;;;4.75;2.92;;;;;;;;;;4370353;32;70812;-59
2023/06/26 12:40:31;;;;;;;5.55;3.25;;;;;;;;;;4370963;32;65079;-58
2023/06/26 12:43:25;;;;;;;5.15;3.10;;;;;;;;;;4381495;32;67888;-59
2023/06/26 12:46:12;;;;;;;4.37;3.12;;;;;;;;;;4374427;32;60753;-60
2023/06/26 12:48:59;;;;;;;5.20;3.58;;;;;;;;;;4370339;32;70314;-60
2023/06/26 12:51:46;;;;;;;4.85;2.87;;;;;;;;;;4354958;32;69650;-57
2023/06/26 12:54:41;;;;;;;3.95;2.70;;;;;;;;;;4362321;32;67341;-61
2023/06/26 12:57:27;;;;;;;6.10;3.20;;;;;;;;;;4383783;32;60365;-57
2023/06/26 13:00:14;;;;;;;;;;;;;;;;;;4362638;32;69716;-61
2023/06/26 13:03:01;;;;;;;3.90;2.90;;;;;;;;;;4361492;32;70012;-59
2023/06/26 13:05:48;;;;;;;5.03;2.95;;;;;;;;;;4361973;32;68434;-57
2023/06/26 13:08:37;;;;;;;4.40;2.90;;;;;;;;;;4362069;32;71440;-59
2023/06/26 13:11:23;;;;;;;4.18;2.78;;;;;;;;;;4372511;32;65821;-58
2023/06/26 13:14:10;;;;;;;3.85;2.42;;;;;;;;;;4383536;32;67960;-59
2023/06/26 13:16:57;;;;;;;4.47;2.90;;;;;;;;;;4383634;32;60368;-59
2023/06/26 13:19:43;;;;;;;;;;;;;;;;;;4360550;32;70930;-58
2023/06/26 13:22:30;;;;;;;5.45;2.92;;;;;;;;;;4372211;32;66527;-60
2023/06/26 13:25:17;;;;;;;7.32;2.50;;;;;;;;;;4361889;32;67795;-59
2023/06/26 13:28:03;;;;;;;;;;;;;;;;;;4383631;32;60068;-59
2023/06/26 13:30:50;;;;;;;3.35;2.40;;;;;;;;;;4383217;32;69837;-58
2023/06/26 13:33:37;;;;;;;7.43;3.42;;;;;;;;;;4383096;32;69481;-59
2023/06/26 13:36:24;;;;;;;;;;;;;;;;;;4362906;32;66697;-59
2023/06/26 13:39:11;;;;;;;5.68;3.05;;;;;;;;;;4362276;32;72354;-58
2023/06/26 13:41:58;;;;;;;4.32;2.87;;;;;;;;;;4360770;32;66401;-58
2023/06/26 13:44:44;;;;;;;;;;;;;;;;;;4372435;32;67617;-59
2023/06/26 13:47:31;;;;;;;4.53;2.62;;;;;;;;;;4361899;32;66872;-59
2023/06/26 13:50:18;;;;;;;3.50;2.30;;;;;;;;;;4361261;32;71800;-60
2023/06/26 13:53:05;;;;;;;;;;;;;;;;;;4361516;32;65784;-59
2023/06/26 13:55:52;;;;;;;3.87;2.67;;;;;;;;;;4371726;32;67956;-60
2023/06/26 13:58:39;;;;;;;5.18;2.87;;;;;;;;;;4384318;32;60074;-58
2023/06/26 14:01:26;;;;;;;;;;;;;;;;;;4350355;32;69428;-58
2023/06/26 14:04:12;;;;;;;5.40;2.78;;;;;;;;;;4383994;32;69381;-59
2023/06/26 14:06:59;;;;;;;5.37;2.60;;;;;;;;;;4383202;32;66420;-59
2023/06/26 14:09:46;;;;;;;4.65;3.22;;;;;;;;;;4364133;32;60091;-59
2023/06/26 14:12:33;;;;;;;4.62;2.85;;;;;;;;;;4368038;32;70700;-59
2023/06/26 14:15:20;;;;;;;4.15;3.00;;;;;;;;;;4371995;32;69587;-59
2023/06/26 14:18:07;;;;;;;4.65;2.70;;;;;;;;;;4350674;32;68132;-58
2023/06/26 14:20:53;;;;;;;6.45;3.22;;;;;;;;;;4372269;32;70733;-59
2023/06/26 14:23:40;;;;;;;;;;;;;;;;;;4383002;32;65832;-58
2023/06/26 14:26:29;;;;;;;4.55;3.03;;;;;;;;;;4382488;32;67057;-59
2023/06/26 14:29:17;;;;;;;4.40;3.00;;;;;;;;;;4360818;32;58877;-58
2023/06/26 14:32:04;;;;;;;8.27;3.58;;;;;;;;;;4382792;32;69471;-59
2023/06/26 14:34:51;;;;;;;8.65;3.05;;;;;;;;;;4382996;32;65679;-60
2023/06/26 14:37:39;;;;;;;8.10;3.05;;;;;;;;;;4372199;32;66966;-59
2023/06/26 14:40:26;;;;;;;4.90;2.95;;;;;;;;;;4372164;32;59866;-59
2023/06/26 14:43:12;;;;;;;6.60;3.22;;;;;;;;;;4386868;32;69564;-59
2023/06/26 14:45:59;;;;;;;4.80;3.00;;;;;;;;;;4376939;32;69434;-59
2023/06/26 14:48:48;;;;;;;6.03;3.45;;;;;;;;;;4372937;32;68087;-59
2023/06/26 14:51:35;;;;;;;4.28;2.90;;;;;;;;;;4381949;32;70715;-59
2023/06/26 14:54:22;;;;;;;2.60;2.10;;;;;;;;;;4377676;32;66253;-59
2023/06/26 14:57:08;;;;;;;5.05;3.03;;;;;;;;;;4376188;32;66725;-59
2023/06/26 14:59:56;;;;;;;5.03;2.70;;;;;;;;;;4375896;32;67981;-58
2023/06/26 15:02:42;;;;;;;;;;;;;;;;;;4374019;32;71740;-58
2023/06/26 15:05:29;;;;;;;4.32;2.67;;;;;;;;;;4382321;32;66230;-58
2023/06/26 15:08:15;;;;;;;;;;;;;;;;;;4371465;32;68738;-60
2023/06/26 15:11:03;;;;;;;5.53;2.97;;;;;;;;;;4382360;32;60041;-58
2023/06/26 15:13:49;;;;;;;5.75;3.17;;;;;;;;;;4370834;32;70416;-60
2023/06/26 15:16:36;;;;;;;5.15;2.92;;;;;;;;;;4370391;32;69189;-59
2023/06/26 15:19:23;;;;;;;4.85;2.67;;;;;;;;;;4370507;32;67265;-59
2023/06/26 15:22:10;;;;;;;2.50;1.95;;;;;;;;;;4371553;32;72120;-60
2023/06/26 15:24:56;;;;;;;;;;;;;;;;;;4360498;32;71006;-60
2023/06/26 15:27:43;;;;;;;4.72;2.60;;;;;;;;;;4360031;32;70596;-60
2023/06/26 15:30:30;;;;;;;4.05;2.83;;;;;;;;;;4360001;32;65461;-58
2023/06/26 15:33:17;;;;;;;4.20;3.10;;;;;;;;;;4371415;32;71173;-58
2023/06/26 15:36:05;;;;;;;5.00;3.40;;;;;;;;;;4360910;32;65859;-59
2023/06/26 15:38:52;;;;;;;5.68;3.08;;;;;;;;;;4371492;32;67932;-60
2023/06/26 15:41:38;;;;;;;1.98;1.55;;;;;;;;;;4381818;32;60109;-60
2023/06/26 15:44:25;;;;;;;;;;;;;;;;;;4371600;32;70657;-59
2023/06/26 15:47:11;;;;;;;4.90;3.12;;;;;;;;;;4381349;32;69349;-59
2023/06/26 15:49:58;;;;;;;4.87;3.40;;;;;;;;;;4371020;32;67806;-58
2023/06/26 15:52:49;;;;;;;4.97;2.72;;;;;;;;;;4371106;32;60397;-59
2023/06/26 15:55:36;;;;;;;5.60;3.42;;;;;;;;;;4384014;32;70591;-58
2023/06/26 15:58:22;;;;;;;4.93;3.00;;;;;;;;;;4378672;32;68322;-58
2023/06/26 16:01:09;;;;;;;;;;;;;;;;;;4371550;32;66920;-59
2023/06/26 16:03:56;;;;;;;5.80;3.15;;;;;;;;;;4360715;32;70837;-59
2023/06/26 16:06:43;;;;;;;5.47;3.37;;;;;;;;;;4370902;32;66370;-59
2023/06/26 16:09:29;;;;;;;;;;;;;;;;;;4383212;32;67135;-59
2023/06/26 16:12:17;;;;;;;5.45;3.45;;;;;;;;;;4369954;32;59535;-60
2023/06/26 16:15:04;;;;;;;4.78;2.97;;;;;;;;;;4381018;32;71676;-59
2023/06/26 16:17:50;;;;;;;5.12;3.50;;;;;;;;;;4381607;32;66204;-57
2023/06/26 16:20:37;;;;;;;;;;;;;;;;;;4371054;32;66748;-58
2023/06/26 16:23:23;;;;;;;5.37;3.40;;;;;;;;;;4370505;32;58182;-58
2023/06/26 16:26:10;;;;;;;5.80;3.78;;;;;;;;;;4373003;32;69863;-58
2023/06/26 16:28:57;;;;;;;6.80;3.70;;;;;;;;;;4362350;32;68416;-59
2023/06/26 16:31:44;;;;;;;5.28;3.33;;;;;;;;;;4373482;32;67807;-58
2023/06/26 16:34:31;;;;;;;6.22;3.87;;;;;;;;;;4384218;32;71578;-58
2023/06/26 16:37:17;;;;;;;;;;;;;;;;;;4373414;32;70678;-59
2023/06/26 16:40:04;;;;;;;5.93;3.62;;;;;;;;;;4384219;32;69414;-59
2023/06/26 16:42:52;;;;;;;9.25;4.25;;;;;;;;;;4376744;32;67946;-58
2023/06/26 16:45:39;;;;;;;7.60;4.20;;;;;;;;;;4364049;32;72659;-58
2023/06/26 16:48:25;;;;;;;;;;;;;;;;;;4372838;32;66729;-59
2023/06/26 16:51:12;;;;;;;6.22;4.00;;;;;;;;;;4383838;32;68242;-59
2023/06/26 16:53:59;;;;;;;6.72;4.40;;;;;;;;;;4362342;32;61525;-59
2023/06/26 16:56:45;;;;;;;6.28;3.85;;;;;;;;;;4373054;32;69980;-59
2023/06/26 16:59:32;;;;;;;8.15;4.07;;;;;;;;;;4373068;32;69494;-58
2023/06/26 17:02:19;;;;;;;;;;;;;;;;;;4362337;32;68774;-60